createdAt,value
2023-02-28T00:01:16.978Z,101600.38
2023-02-28T00:03:18.947Z,101595.31
2023-02-28T00:05:22.542Z,101596.13
2023-02-28T00:07:24.343Z,101602.56
2023-02-28T00:09:26.168Z,101597.81
2023-02-28T00:11:28.213Z,101594.91
2023-02-28T00:13:30.239Z,101598.22
2023-02-28T00:15:33.738Z,101598.41
2023-02-28T00:17:36.264Z,101592.66
2023-02-28T00:19:38.112Z,101593.06
2023-02-28T00:21:40.010Z,101591.59
2023-02-28T00:23:41.975Z,101595.91
2023-02-28T00:25:44.004Z,101591.81
2023-02-28T00:27:46.315Z,101594.50
2023-02-28T00:29:48.135Z,101590.00
2023-02-28T00:31:51.135Z,101597.63
2023-02-28T00:33:52.867Z,101586.88
2023-02-28T00:36:03.218Z,101588.75
2023-02-28T00:38:04.950Z,101587.72
2023-02-28T00:40:08.330Z,101583.22
2023-02-28T00:42:09.918Z,101589.75
2023-02-28T00:44:12.079Z,101588.69
2023-02-28T00:46:15.914Z,101589.91
2023-02-28T00:48:18.876Z,101593.22
2023-02-28T00:50:20.875Z,101592.03
2023-02-28T00:52:22.512Z,101590.63
2023-02-28T00:54:24.891Z,101590.59
2023-02-28T00:56:26.568Z,101591.66
2023-02-28T00:58:28.257Z,101595.19
2023-02-28T01:00:29.849Z,101591.34
2023-02-28T01:02:31.517Z,101594.69
2023-02-28T01:04:34.740Z,101583.41
2023-02-28T01:06:36.672Z,101589.56
2023-02-28T01:08:38.404Z,101588.38
2023-02-28T01:10:40.155Z,101593.88
2023-02-28T01:12:41.764Z,101587.50
2023-02-28T01:14:43.638Z,101589.19
2023-02-28T01:16:45.632Z,101590.81
2023-02-28T01:18:47.330Z,101589.19
2023-02-28T01:20:50.465Z,101581.41
2023-02-28T01:22:52.080Z,101587.94
2023-02-28T01:24:55.049Z,101590.59
2023-02-28T01:26:56.691Z,101581.16
2023-02-28T01:28:58.983Z,101579.94
2023-02-28T01:31:00.654Z,101580.97
2023-02-28T01:33:02.363Z,101583.03
2023-02-28T01:35:04.436Z,101584.47
2023-02-28T01:37:07.338Z,101587.16
2023-02-28T01:39:09.019Z,101586.13
2023-02-28T01:41:17.900Z,101591.28
2023-02-28T01:43:24.462Z,101585.31
2023-02-28T01:45:28.314Z,101589.41
2023-02-28T01:47:33.803Z,101587.38
2023-02-28T01:49:35.732Z,101583.47
2023-02-28T01:51:42.180Z,101579.75
2023-02-28T01:53:48.675Z,101578.72
2023-02-28T01:55:53.496Z,101583.25
2023-02-28T01:57:59.123Z,101574.66
2023-02-28T02:00:03.954Z,101576.06
2023-02-28T02:04:39.888Z,101575.25
2023-02-28T02:06:44.705Z,101571.16
2023-02-28T02:08:47.654Z,101571.75
2023-02-28T02:10:52.246Z,101571.97
2023-02-28T02:13:09.506Z,101567.88
2023-02-28T02:15:16.862Z,101564.97
2023-02-28T02:17:27.177Z,101563.94
2023-02-28T02:20:00.839Z,101564.31
2023-02-28T02:22:23.878Z,101557.16
2023-02-28T02:25:00.288Z,101564.72
2023-02-28T02:27:16.803Z,101549.75
2023-02-28T02:29:48.026Z,101558.38
2023-02-28T02:32:03.184Z,101558.59
2023-02-28T02:34:40.146Z,101553.63
2023-02-28T02:36:46.620Z,101556.66
2023-02-28T02:38:53.059Z,101550.34
2023-02-28T02:41:05.199Z,101559.75
2023-02-28T02:43:11.530Z,101552.75
2023-02-28T02:45:18.285Z,101559.13
2023-02-28T02:47:23.940Z,101555.78
2023-02-28T02:49:30.654Z,101552.16
2023-02-28T02:51:34.730Z,101551.28
2023-02-28T02:53:41.777Z,101551.88
2023-02-28T02:55:47.953Z,101558.47
2023-02-28T02:57:53.729Z,101555.84
2023-02-28T02:59:57.278Z,101560.75
2023-02-28T03:02:02.633Z,101550.09
2023-02-28T03:04:08.327Z,101551.88
2023-02-28T03:06:09.935Z,101550.88
2023-02-28T03:08:12.987Z,101556.09
2023-02-28T03:10:35.560Z,101552.06
2023-02-28T03:12:45.628Z,101549.16
2023-02-28T03:14:56.866Z,101544.91
2023-02-28T03:17:15.380Z,101546.78
2023-02-28T03:19:39.362Z,101553.66
2023-02-28T03:21:47.564Z,101543.00
2023-02-28T03:23:58.300Z,101548.53
2023-02-28T03:26:05.106Z,101548.19
2023-02-28T03:28:15.575Z,101546.13
2023-02-28T03:30:23.869Z,101551.41
2023-02-28T03:32:29.958Z,101544.31
2023-02-28T03:34:36.466Z,101539.63
2023-02-28T03:36:42.513Z,101547.41
2023-02-28T03:38:47.758Z,101538.44
2023-02-28T03:40:56.058Z,101542.09
2023-02-28T03:43:03.374Z,101546.31
2023-02-28T03:45:10.117Z,101540.09
2023-02-28T03:47:16.261Z,101543.06
2023-02-28T03:49:21.501Z,101548.59
2023-02-28T03:51:25.738Z,101545.44
2023-02-28T03:53:30.612Z,101545.03
2023-02-28T03:55:39.853Z,101552.00
2023-02-28T03:57:53.969Z,101546.63
2023-02-28T04:00:00.478Z,101543.94
2023-02-28T04:02:02.598Z,101541.69
2023-02-28T04:04:05.015Z,101544.91
2023-02-28T04:06:09.161Z,101544.66
2023-02-28T04:08:10.768Z,101545.34
2023-02-28T04:10:13.151Z,101542.25
2023-02-28T04:12:14.737Z,101542.47
2023-02-28T04:14:17.646Z,101538.91
2023-02-28T04:16:33.976Z,101546.59
2023-02-28T04:18:36.818Z,101549.34
2023-02-28T04:20:38.430Z,101546.59
2023-02-28T04:22:39.999Z,101546.31
2023-02-28T04:24:41.643Z,101541.25
2023-02-28T04:26:45.441Z,101546.09
2023-02-28T04:28:47.061Z,101541.91
2023-02-28T04:30:55.683Z,101545.91
2023-02-28T04:33:00.799Z,101538.16
2023-02-28T04:35:02.464Z,101540.69
2023-02-28T04:37:13.953Z,101540.38
2023-02-28T04:39:15.997Z,101541.88
2023-02-28T04:41:17.688Z,101542.84
2023-02-28T04:43:22.321Z,101534.97
2023-02-28T04:45:23.907Z,101538.13
2023-02-28T04:47:26.816Z,101536.84
2023-02-28T04:49:28.371Z,101536.16
2023-02-28T04:51:30.507Z,101534.63
2023-02-28T04:53:32.999Z,101535.59
2023-02-28T04:55:34.613Z,101531.69
2023-02-28T04:57:36.274Z,101528.56
2023-02-28T04:59:37.970Z,101544.50
2023-02-28T05:01:39.548Z,101543.44
2023-02-28T05:03:42.995Z,101545.19
2023-02-28T05:05:44.597Z,101550.34
2023-02-28T05:07:46.205Z,101549.91
2023-02-28T05:09:47.864Z,101550.38
2023-02-28T05:11:49.445Z,101550.00
2023-02-28T05:13:52.008Z,101552.59
2023-02-28T05:15:53.681Z,101554.75
2023-02-28T05:17:55.384Z,101550.75
2023-02-28T05:20:09.726Z,101554.88
2023-02-28T05:22:14.936Z,101555.63
2023-02-28T05:24:16.717Z,101560.13
2023-02-28T05:26:18.315Z,101554.16
2023-02-28T05:28:19.902Z,101559.75
2023-02-28T05:30:21.733Z,101556.59
2023-02-28T05:32:23.492Z,101551.72
2023-02-28T05:34:25.053Z,101549.50
2023-02-28T05:36:28.423Z,101554.00
2023-02-28T05:38:30.091Z,101545.50
2023-02-28T05:40:31.710Z,101556.31
2023-02-28T05:42:33.264Z,101549.72
2023-02-28T05:44:34.908Z,101558.91
2023-02-28T05:46:36.535Z,101561.84
2023-02-28T05:48:39.552Z,101560.00
2023-02-28T05:50:41.314Z,101566.44
2023-02-28T05:52:44.252Z,101569.16
2023-02-28T05:54:47.168Z,101567.81
2023-02-28T05:56:48.704Z,101571.25
2023-02-28T05:58:50.270Z,101570.88
2023-02-28T06:00:52.208Z,101569.31
2023-02-28T06:02:53.851Z,101565.81
2023-02-28T06:04:55.439Z,101568.72
2023-02-28T06:06:57.116Z,101575.78
2023-02-28T06:09:00.012Z,101574.41
2023-02-28T06:11:03.936Z,101571.19
2023-02-28T06:13:05.889Z,101573.41
2023-02-28T06:15:08.592Z,101578.72
2023-02-28T06:17:10.845Z,101576.63
2023-02-28T06:19:12.477Z,101579.66
2023-02-28T06:21:14.089Z,101579.22
2023-02-28T06:23:15.621Z,101580.09
2023-02-28T06:25:18.892Z,101585.41
2023-02-28T06:27:20.404Z,101589.59
2023-02-28T06:29:22.238Z,101596.56
2023-02-28T06:31:24.046Z,101593.13
2023-02-28T06:33:25.823Z,101597.94
2023-02-28T06:35:27.424Z,101592.00
2023-02-28T06:37:29.061Z,101592.47
2023-02-28T06:39:30.889Z,101598.75
2023-02-28T06:41:47.919Z,101603.41
2023-02-28T06:43:55.060Z,101597.31
2023-02-28T06:45:58.472Z,101603.19
2023-02-28T06:48:00.115Z,101610.59
2023-02-28T06:50:01.749Z,101603.16
2023-02-28T06:52:03.764Z,101610.19
2023-02-28T06:54:06.462Z,101605.47
2023-02-28T06:56:10.074Z,101609.50
2023-02-28T06:58:12.979Z,101607.03
2023-02-28T07:00:15.677Z,101617.38
2023-02-28T07:02:17.341Z,101607.03
2023-02-28T07:04:18.904Z,101608.50
2023-02-28T07:06:20.753Z,101612.38
2023-02-28T07:08:22.432Z,101612.47
2023-02-28T07:10:24.203Z,101613.13
2023-02-28T07:12:25.910Z,101611.09
2023-02-28T07:14:28.795Z,101612.19
2023-02-28T07:16:30.357Z,101620.47
2023-02-28T07:18:32.659Z,101623.22
2023-02-28T07:20:34.250Z,101632.28
2023-02-28T07:22:35.824Z,101628.03
2023-02-28T07:24:37.378Z,101636.84
2023-02-28T07:26:39.016Z,101634.63
2023-02-28T07:28:40.536Z,101637.06
2023-02-28T07:30:43.604Z,101626.59
2023-02-28T07:32:45.408Z,101628.91
2023-02-28T07:34:46.965Z,101625.94
2023-02-28T07:36:48.710Z,101631.16
2023-02-28T07:38:50.478Z,101628.13
2023-02-28T07:40:52.170Z,101626.94
2023-02-28T07:42:53.754Z,101627.34
2023-02-28T07:44:55.324Z,101630.09
2023-02-28T07:46:58.742Z,101626.00
2023-02-28T07:49:00.430Z,101622.38
2023-02-28T07:51:02.624Z,101617.69
2023-02-28T07:53:05.774Z,101623.06
2023-02-28T07:55:09.071Z,101629.47
2023-02-28T07:57:10.712Z,101628.34
2023-02-28T07:59:12.388Z,101630.16
2023-02-28T08:01:14.187Z,101636.91
2023-02-28T08:03:18.027Z,101633.66
2023-02-28T08:05:21.977Z,101637.16
2023-02-28T08:07:23.864Z,101638.22
2023-02-28T08:09:25.598Z,101643.94
2023-02-28T08:11:27.344Z,101640.47
2023-02-28T08:13:29.921Z,101641.69
2023-02-28T08:15:31.648Z,101635.78
2023-02-28T08:17:35.358Z,101636.16
2023-02-28T08:19:38.399Z,101633.72
2023-02-28T08:21:48.616Z,101623.88
2023-02-28T08:23:51.405Z,101631.06
2023-02-28T08:25:56.422Z,101622.03
2023-02-28T08:27:58.270Z,101624.28
2023-02-28T08:29:59.835Z,101629.44
2023-02-28T08:32:01.571Z,101631.25
2023-02-28T08:34:06.392Z,101622.63
2023-02-28T08:36:09.996Z,101621.81
2023-02-28T08:38:11.605Z,101619.91
2023-02-28T08:40:13.284Z,101620.69
2023-02-28T08:42:14.919Z,101624.63
2023-02-28T08:44:16.548Z,101625.78
2023-02-28T08:46:18.474Z,101611.47
2023-02-28T08:48:20.078Z,101626.25
2023-02-28T08:50:22.004Z,101619.00
2023-02-28T08:52:24.947Z,101619.63
2023-02-28T08:54:26.616Z,101622.91
2023-02-28T08:56:29.819Z,101617.56
2023-02-28T08:58:31.974Z,101626.59
2023-02-28T09:00:33.523Z,101619.38
2023-02-28T09:02:35.102Z,101627.00
2023-02-28T09:04:36.668Z,101620.41
2023-02-28T09:06:39.191Z,101627.47
2023-02-28T09:08:42.731Z,101633.91
2023-02-28T09:10:44.384Z,101627.31
2023-02-28T09:12:46.071Z,101626.25
2023-02-28T09:14:47.642Z,101622.00
2023-02-28T09:16:49.486Z,101627.75
2023-02-28T09:18:51.231Z,101621.38
2023-02-28T09:20:53.328Z,101626.09
2023-02-28T09:22:55.001Z,101621.94
2023-02-28T09:24:57.898Z,101624.94
2023-02-28T09:27:05.092Z,101621.13
2023-02-28T09:29:07.234Z,101612.06
2023-02-28T09:31:13.681Z,101618.06
2023-02-28T09:33:21.651Z,101627.06
2023-02-28T09:35:25.167Z,101619.03
2023-02-28T09:37:26.797Z,101615.44
2023-02-28T09:39:28.487Z,101616.78
2023-02-28T09:41:39.046Z,101609.66
2023-02-28T09:43:44.277Z,101612.38
2023-02-28T09:45:53.510Z,101608.75
2023-02-28T09:47:59.844Z,101609.50
2023-02-28T09:50:23.103Z,101604.34
2023-02-28T09:52:29.279Z,101606.88
2023-02-28T09:54:33.742Z,101607.59
2023-02-28T09:56:39.831Z,101606.19
2023-02-28T09:58:50.252Z,101609.22
2023-02-28T10:01:01.195Z,101610.44
2023-02-28T10:03:26.320Z,101614.91
2023-02-28T10:05:31.181Z,101611.78
2023-02-28T10:07:48.994Z,101596.75
2023-02-28T10:09:56.066Z,101616.28
2023-02-28T10:12:04.833Z,101614.19
2023-02-28T10:14:14.082Z,101611.28
2023-02-28T10:16:21.104Z,101608.09
2023-02-28T10:18:28.212Z,101615.41
2023-02-28T10:20:34.511Z,101607.00
2023-02-28T10:22:42.394Z,101612.66
2023-02-28T10:24:45.856Z,101613.97
2023-02-28T10:26:48.765Z,101611.69
2023-02-28T10:28:54.051Z,101612.19
2023-02-28T10:30:56.371Z,101611.13
2023-02-28T10:32:58.043Z,101616.50
2023-02-28T10:35:07.369Z,101616.00
2023-02-28T10:37:09.655Z,101616.84
2023-02-28T10:39:36.124Z,101608.97
2023-02-28T10:41:44.356Z,101612.94
2023-02-28T10:43:45.964Z,101612.94
2023-02-28T10:45:59.229Z,101605.94
2023-02-28T10:48:03.678Z,101608.72
2023-02-28T10:50:05.986Z,101604.06
2023-02-28T10:52:10.605Z,101604.28
2023-02-28T10:54:17.237Z,101615.41
2023-02-28T10:56:20.775Z,101606.50
2023-02-28T10:58:23.480Z,101600.91
2023-02-28T11:00:32.936Z,101606.16
2023-02-28T11:02:37.572Z,101595.75
2023-02-28T11:04:39.395Z,101593.78
2023-02-28T11:06:41.068Z,101595.16
2023-02-28T11:08:52.117Z,101599.81
2023-02-28T11:10:59.669Z,101591.00
2023-02-28T11:13:02.872Z,101593.19
2023-02-28T11:15:18.773Z,101595.34
2023-02-28T11:17:24.049Z,101599.91
2023-02-28T11:19:30.935Z,101589.13
2023-02-28T11:21:36.460Z,101595.38
2023-02-28T11:23:41.869Z,101588.94
2023-02-28T11:25:50.138Z,101586.59
2023-02-28T11:27:53.311Z,101586.13
2023-02-28T11:29:54.961Z,101585.94
2023-02-28T11:32:14.314Z,101583.22
2023-02-28T11:34:27.696Z,101585.25
2023-02-28T11:36:31.452Z,101583.66
2023-02-28T11:38:36.443Z,101576.88
2023-02-28T11:40:45.051Z,101564.91
2023-02-28T11:42:58.453Z,101566.41
2023-02-28T11:45:13.399Z,101573.81
2023-02-28T11:47:22.511Z,101575.50
2023-02-28T11:49:34.142Z,101576.31
2023-02-28T11:51:42.948Z,101571.69
2023-02-28T11:54:12.566Z,101563.41
2023-02-28T11:56:23.682Z,101570.03
2023-02-28T11:58:37.820Z,101563.19
2023-02-28T12:00:58.782Z,101565.34
2023-02-28T12:38:29.604Z,101563.50
2023-02-28T12:40:42.325Z,101555.13
2023-02-28T12:42:48.319Z,101563.50
2023-02-28T12:44:54.142Z,101564.56
2023-02-28T12:47:00.598Z,101554.44
2023-02-28T12:49:06.971Z,101557.09
2023-02-28T12:51:10.278Z,101556.53
2023-02-28T12:53:19.612Z,101554.69
2023-02-28T12:55:31.447Z,101558.16
2023-02-28T12:57:37.170Z,101555.19
2023-02-28T12:59:44.860Z,101551.50
2023-02-28T13:02:16.720Z,101547.91
2023-02-28T13:04:33.177Z,101553.13
2023-02-28T13:06:50.634Z,101552.56
2023-02-28T13:09:05.720Z,101554.38
2023-02-28T13:11:23.838Z,101550.44
2023-02-28T13:13:27.311Z,101551.19
2023-02-28T13:15:29.343Z,101551.88
2023-02-28T13:17:31.212Z,101550.09
2023-02-28T13:19:35.689Z,101551.06
2023-02-28T13:21:44.604Z,101555.69
2023-02-28T13:24:04.470Z,101556.84
2023-02-28T13:26:06.516Z,101550.97
2023-02-28T13:28:12.658Z,101558.81
2023-02-28T13:30:51.598Z,101551.88
2023-02-28T13:33:25.253Z,101552.03
2023-02-28T13:35:38.010Z,101548.34
2023-02-28T13:37:43.866Z,101547.06
2023-02-28T13:39:50.823Z,101550.81
2023-02-28T13:41:52.555Z,101550.41
2023-02-28T13:44:04.496Z,101556.25
2023-02-28T13:46:11.563Z,101556.22
2023-02-28T13:48:19.870Z,101556.31
2023-02-28T13:50:30.270Z,101553.00
2023-02-28T13:52:38.372Z,101550.25
2023-02-28T13:54:55.037Z,101551.41
2023-02-28T13:57:09.983Z,101539.84
2023-02-28T13:59:27.369Z,101550.34
2023-02-28T14:02:01.951Z,101551.94
2023-02-28T14:04:18.870Z,101549.81
2023-02-28T14:06:26.919Z,101552.63
2023-02-28T14:08:28.663Z,101548.94
2023-02-28T14:10:33.578Z,101545.63
2023-02-28T14:13:13.436Z,101549.00
2023-02-28T14:15:53.637Z,101547.13
2023-02-28T14:17:56.054Z,101543.78
2023-02-28T14:19:59.035Z,101541.22
2023-02-28T14:22:22.541Z,101548.09
2023-02-28T14:24:51.218Z,101547.59
2023-02-28T14:27:12.708Z,101545.06
2023-02-28T14:29:30.931Z,101540.97
2023-02-28T14:31:41.670Z,101547.72
2023-02-28T14:34:06.067Z,101549.94
2023-02-28T14:36:13.467Z,101546.97
2023-02-28T14:38:20.570Z,101540.69
2023-02-28T14:40:28.532Z,101541.31
2023-02-28T14:42:32.152Z,101545.97
2023-02-28T14:44:33.835Z,101546.56
2023-02-28T14:46:40.041Z,101546.59
2023-02-28T14:48:41.742Z,101545.84
2023-02-28T14:50:50.448Z,101544.03
2023-02-28T14:52:54.255Z,101548.94
2023-02-28T14:54:59.077Z,101551.50
2023-02-28T14:57:00.722Z,101553.47
2023-02-28T14:59:02.344Z,101551.84
2023-02-28T15:01:05.226Z,101556.28
2023-02-28T15:03:20.790Z,101551.28
2023-02-28T15:05:28.148Z,101551.31
2023-02-28T15:07:29.961Z,101546.38
2023-02-28T15:11:49.141Z,101542.16
2023-02-28T15:13:53.164Z,101543.22
2023-02-28T15:16:02.454Z,101543.59
2023-02-28T15:18:07.425Z,101539.88
2023-02-28T15:20:14.898Z,101554.78
2023-02-28T15:22:20.271Z,101549.88
2023-02-28T15:24:37.085Z,101548.94
2023-02-28T15:26:42.080Z,101552.22
2023-02-28T15:28:46.834Z,101555.94
2023-02-28T15:30:56.545Z,101551.41
2023-02-28T15:33:20.354Z,101552.44
2023-02-28T15:35:29.070Z,101553.03
2023-02-28T15:37:42.822Z,101551.13
2023-02-28T15:39:45.629Z,101549.97
2023-02-28T15:41:47.243Z,101556.97
2023-02-28T15:43:48.910Z,101546.72
2023-02-28T15:45:56.509Z,101547.78
2023-02-28T15:48:02.665Z,101562.13
2023-02-28T15:50:14.961Z,101549.41
2023-02-28T15:52:22.189Z,101558.03
2023-02-28T15:54:28.042Z,101542.06
2023-02-28T15:56:32.360Z,101546.03
2023-02-28T15:58:36.083Z,101554.56
2023-02-28T16:00:37.753Z,101547.53
2023-02-28T16:02:40.444Z,101545.88
2023-02-28T16:05:03.861Z,101552.47
2023-02-28T16:07:07.000Z,101551.53
2023-02-28T16:09:13.174Z,101547.56
2023-02-28T16:11:15.377Z,101546.28
2023-02-28T16:13:16.968Z,101558.19
2023-02-28T16:15:21.026Z,101553.16
2023-02-28T16:17:25.400Z,101557.81
2023-02-28T16:19:26.960Z,101556.41
2023-02-28T16:21:28.803Z,101550.81
2023-02-28T16:23:30.844Z,101554.75
2023-02-28T16:25:37.900Z,101555.13
2023-02-28T16:27:39.851Z,101562.69
2023-02-28T16:29:41.621Z,101562.44
2023-02-28T16:31:43.195Z,101564.00
2023-02-28T16:33:45.868Z,101563.31
2023-02-28T16:35:47.719Z,101568.16
2023-02-28T16:37:51.230Z,101570.84
2023-02-28T16:39:52.798Z,101572.38
2023-02-28T16:41:55.767Z,101575.50
2023-02-28T16:43:59.852Z,101574.59
2023-02-28T16:46:01.766Z,101568.78
2023-02-28T16:48:03.560Z,101580.00
2023-02-28T16:50:10.294Z,101575.56
2023-02-28T16:52:12.016Z,101577.44
2023-02-28T16:54:13.614Z,101580.56
2023-02-28T16:56:19.598Z,101579.88
2023-02-28T16:58:22.611Z,101576.50
2023-02-28T17:00:25.860Z,101577.06
2023-02-28T17:02:27.626Z,101587.91
2023-02-28T17:04:29.317Z,101585.69
2023-02-28T17:06:34.070Z,101573.06
2023-02-28T17:08:35.601Z,101587.34
2023-02-28T17:10:37.177Z,101587.78
2023-02-28T17:12:38.747Z,101590.16
2023-02-28T17:14:41.716Z,101588.63
2023-02-28T17:16:43.932Z,101593.03
2023-02-28T17:18:48.686Z,101601.78
2023-02-28T17:20:50.421Z,101607.97
2023-02-28T17:22:52.340Z,101605.06
2023-02-28T17:24:53.910Z,101614.50
2023-02-28T17:26:55.575Z,101613.81
2023-02-28T17:28:58.109Z,101610.69
2023-02-28T17:31:01.096Z,101619.38
2023-02-28T17:33:02.717Z,101615.31
2023-02-28T17:37:20.753Z,101620.13
2023-02-28T17:39:24.091Z,101611.63
2023-02-28T17:41:26.228Z,101622.16
2023-02-28T17:43:27.995Z,101618.97
2023-02-28T17:45:29.600Z,101622.84
2023-02-28T17:47:32.734Z,101626.81
2023-02-28T17:49:34.407Z,101621.09
2023-02-28T17:51:36.002Z,101621.91
2023-02-28T17:53:37.533Z,101620.84
2023-02-28T17:55:39.351Z,101625.88
2023-02-28T17:57:41.538Z,101626.47
2023-02-28T17:59:44.692Z,101620.41
2023-02-28T18:01:46.321Z,101625.06
2023-02-28T18:03:49.477Z,101622.72
2023-02-28T18:05:51.147Z,101622.50
2023-02-28T18:07:53.059Z,101627.72
2023-02-28T18:09:54.749Z,101629.03
2023-02-28T18:11:56.884Z,101625.03
2023-02-28T18:13:58.519Z,101620.63
2023-02-28T18:16:00.188Z,101623.19
2023-02-28T18:18:01.967Z,101622.63
2023-02-28T18:20:06.088Z,101623.56
2023-02-28T18:22:07.684Z,101634.66
2023-02-28T18:24:09.472Z,101632.88
2023-02-28T18:26:11.107Z,101631.13
2023-02-28T18:28:12.682Z,101630.69
2023-02-28T18:30:19.787Z,101628.09
2023-02-28T18:32:21.458Z,101624.34
2023-02-28T18:34:24.074Z,101630.66
2023-02-28T18:36:28.131Z,101627.88
2023-02-28T18:38:30.069Z,101622.28
2023-02-28T18:40:32.147Z,101622.50
2023-02-28T18:42:33.718Z,101619.00
2023-02-28T18:44:37.204Z,101622.38
2023-02-28T18:46:38.935Z,101618.88
2023-02-28T18:48:40.795Z,101620.72
2023-02-28T18:50:42.592Z,101623.53
2023-02-28T18:52:45.538Z,101627.75
2023-02-28T18:54:47.111Z,101623.78
2023-02-28T18:56:49.307Z,101616.53
2023-02-28T18:58:51.415Z,101623.53
2023-02-28T19:00:53.053Z,101616.31
2023-02-28T19:02:54.686Z,101626.72
2023-02-28T19:04:59.270Z,101626.72
2023-02-28T19:07:03.844Z,101631.59
2023-02-28T19:09:06.822Z,101617.00
2023-02-28T19:11:09.447Z,101622.03
2023-02-28T19:13:11.014Z,101624.97
2023-02-28T19:15:13.495Z,101624.03
2023-02-28T19:17:15.114Z,101625.53
2023-02-28T19:19:16.839Z,101627.72
2023-02-28T19:21:29.411Z,101631.94
2023-02-28T19:23:32.122Z,101629.13
2023-02-28T19:25:35.088Z,101630.72
2023-02-28T19:27:36.986Z,101634.53
2023-02-28T19:29:38.591Z,101625.44
2023-02-28T19:31:41.157Z,101627.22
2023-02-28T19:33:42.822Z,101631.31
2023-02-28T19:35:44.452Z,101629.53
2023-02-28T19:37:48.863Z,101625.09
2023-02-28T19:39:50.445Z,101629.16
2023-02-28T19:41:53.432Z,101630.00
2023-02-28T19:43:55.097Z,101632.91
2023-02-28T19:45:57.106Z,101629.84
2023-02-28T19:47:58.733Z,101635.09
2023-02-28T19:50:00.324Z,101624.66
2023-02-28T19:52:02.105Z,101632.00
2023-02-28T19:54:04.194Z,101630.31
2023-02-28T19:56:07.064Z,101629.25
2023-02-28T19:58:09.999Z,101628.22
2023-02-28T20:00:14.619Z,101627.88
2023-02-28T20:02:21.622Z,101624.41
2023-02-28T20:04:24.158Z,101624.16
2023-02-28T20:06:25.792Z,101621.47
2023-02-28T20:08:27.477Z,101625.59
2023-02-28T20:10:29.060Z,101626.97
2023-02-28T20:12:30.602Z,101626.63
2023-02-28T20:14:33.595Z,101627.53
2023-02-28T20:16:35.427Z,101624.41
2023-02-28T20:18:38.107Z,101630.72
2023-02-28T20:20:39.685Z,101623.59
2023-02-28T20:22:41.307Z,101630.56
2023-02-28T20:24:43.516Z,101628.22
2023-02-28T20:26:45.039Z,101633.13
2023-02-28T20:28:46.972Z,101628.72
2023-02-28T20:30:49.933Z,101625.09
2023-02-28T20:32:51.575Z,101630.94
2023-02-28T20:34:53.407Z,101628.72
2023-02-28T20:36:55.028Z,101624.84
2023-02-28T20:38:57.420Z,101629.41
2023-02-28T20:41:01.123Z,101632.53
2023-02-28T20:43:02.789Z,101631.25
2023-02-28T20:45:04.992Z,101632.53
2023-02-28T20:47:07.966Z,101620.84
2023-02-28T20:49:09.845Z,101619.63
2023-02-28T20:51:11.653Z,101616.25
2023-02-28T20:53:13.212Z,101617.72
2023-02-28T20:55:14.785Z,101611.81
2023-02-28T20:57:16.534Z,101610.97
2023-02-28T20:59:18.119Z,101602.72
2023-02-28T21:01:21.629Z,101613.22
2023-02-28T21:03:24.600Z,101613.22
2023-02-28T21:05:26.235Z,101608.72
2023-02-28T21:07:28.395Z,101613.38
2023-02-28T21:09:30.022Z,101609.22
2023-02-28T21:11:33.766Z,101612.50
2023-02-28T21:13:35.468Z,101609.81
2023-02-28T21:15:37.858Z,101611.06
2023-02-28T21:17:39.493Z,101610.94
2023-02-28T21:19:42.413Z,101604.63
2023-02-28T21:21:45.211Z,101602.53
2023-02-28T21:23:48.323Z,101615.56
2023-02-28T21:25:49.932Z,101617.88
2023-02-28T21:27:51.597Z,101616.81
2023-02-28T21:29:53.164Z,101614.31
2023-02-28T21:31:54.782Z,101612.06
2023-02-28T21:33:58.047Z,101615.56
2023-02-28T21:36:08.403Z,101616.81
2023-02-28T21:38:09.952Z,101610.44
2023-02-28T21:40:12.960Z,101617.19
2023-02-28T21:42:14.611Z,101614.31
2023-02-28T21:44:16.221Z,101609.69
2023-02-28T21:46:20.691Z,101610.16
2023-02-28T21:48:22.339Z,101608.22
2023-02-28T21:50:23.929Z,101605.66
2023-02-28T21:52:26.961Z,101600.72
2023-02-28T21:54:28.512Z,101609.69
2023-02-28T21:56:32.568Z,101603.88
2023-02-28T21:58:34.690Z,101606.78
2023-02-28T22:00:36.637Z,101604.91
2023-02-28T22:02:38.323Z,101613.44
2023-02-28T22:04:39.956Z,101609.09
2023-02-28T22:06:41.664Z,101607.69
2023-02-28T22:08:46.909Z,101612.94
2023-02-28T22:10:50.522Z,101613.44
2023-02-28T22:12:52.587Z,101615.16
2023-02-28T22:14:54.127Z,101613.34
2023-02-28T22:16:56.029Z,101603.53
2023-02-28T22:18:58.466Z,101609.34
2023-02-28T22:21:00.063Z,101602.09
2023-02-28T22:23:01.641Z,101609.50
2023-02-28T22:25:05.897Z,101601.53
2023-02-28T22:27:07.532Z,101603.09
2023-02-28T22:29:10.278Z,101604.19
2023-02-28T22:31:13.891Z,101597.44
2023-02-28T22:33:15.991Z,101600.13
2023-02-28T22:35:17.909Z,101603.84
2023-02-28T22:37:19.500Z,101600.72
2023-02-28T22:39:21.005Z,101593.97
2023-02-28T22:41:24.378Z,101590.81
2023-02-28T22:43:26.034Z,101593.72
2023-02-28T22:45:27.578Z,101594.75
2023-02-28T22:47:29.147Z,101604.38
2023-02-28T22:49:30.782Z,101606.28
2023-02-28T22:51:33.253Z,101614.75
2023-02-28T22:53:35.604Z,101619.22
2023-02-28T22:55:37.226Z,101615.44
2023-02-28T22:57:40.214Z,101610.75
2023-02-28T22:59:41.949Z,101619.78
2023-02-28T23:01:43.609Z,101619.66
2023-02-28T23:03:45.401Z,101623.41
2023-02-28T23:05:47.541Z,101617.22
2023-02-28T23:07:49.329Z,101617.00
2023-02-28T23:09:50.977Z,101626.97
2023-02-28T23:11:52.619Z,101615.81
2023-02-28T23:13:56.179Z,101615.81
2023-02-28T23:16:00.065Z,101624.97
2023-02-28T23:18:01.786Z,101622.50
2023-02-28T23:20:04.053Z,101623.09
2023-02-28T23:22:05.792Z,101618.69
2023-02-28T23:24:09.463Z,101623.91
2023-02-28T23:26:11.040Z,101627.69
2023-02-28T23:28:12.681Z,101631.78
2023-02-28T23:30:16.469Z,101629.56
2023-02-28T23:32:18.101Z,101642.97
2023-02-28T23:34:19.978Z,101630.44
2023-02-28T23:36:21.757Z,101638.63
2023-02-28T23:38:23.488Z,101633.88
2023-02-28T23:40:25.433Z,101629.78
2023-02-28T23:42:27.150Z,101629.41
2023-02-28T23:44:28.818Z,101634.22
2023-02-28T23:46:31.995Z,101633.19
2023-02-28T23:48:33.997Z,101635.34
2023-02-28T23:50:37.825Z,101630.41
2023-02-28T23:52:39.421Z,101631.81
2023-02-28T23:54:41.276Z,101622.16
2023-02-28T23:56:43.062Z,101623.19
2023-02-28T23:58:45.572Z,101621.72
